Vremea acum in Budești - Romania

Vrei sa afli care e starea vremii acum in Calarasi - Romania? Dorim sa iti furnizam starea vremii pentru Calarasi - Romania. Starea vremii Calarasi - Romania pentru astazi.

Vremea acum in Budești

Temperatura: 9.2 °C

Este: Senin
Se simte ca: 8.6 °C
Innorat: 0 %
Precipitatii: 0 %
Presiune atmosferica: 1014 hPa
Umiditate: 87%
Vizibilitate: 10 km
Vantul bate din ESE cu 5.8 km/h

Evolutia vremii in Budești pe ore

Ora: 10:00
Senin
Temperatura: 18.9°C
Sansa de precipitatii: 0%
Ora Descriere Temp Se simte Precipitatii Umiditate Vant
00:00Patchy rain nearby13.8°13°80%66%S 11.2 KM/H
01:00Senin13.1°12.3°0%69%S 10.4 KM/H
02:00Senin12.6°12.2°0%71%SSE 7.2 KM/H
03:00Senin12.1°12.2°0%73%ESE 4.7 KM/H
04:00Senin11.6°11.5°0%74%ESE 5.4 KM/H
05:00Senin11.4°11.3°0%75%ESE 5 KM/H
06:00Senin9.2°10.9°0%87%ESE 5.8 KM/H
07:00Senin12.2°11.7°0%75%ESE 7.2 KM/H
08:00Senin14.3°14°0%69%SE 8.6 KM/H
09:00Senin16.8°16.8°0%60%SE 9 KM/H
10:00Senin18.9°19°0%54%SE 8.3 KM/H
11:00Senin20.5°20.6°0%49%SE 9 KM/H
12:00Senin21.8°21.8°0%47%ESE 10.1 KM/H
13:00Senin22.5°24.5°0%46%ESE 10.8 KM/H
14:00Senin23.1°24.6°0%45%ESE 10.4 KM/H
15:0023.4°24.7°0%45%ESE 10.1 KM/H
16:0023.5°24.8°0%46%ESE 10.4 KM/H
17:00Innorat23.3°24.8°0%47%ESE 11.2 KM/H
18:00Innorat22.5°24.7°0%55%SE 12.6 KM/H
19:00Senin20.3°20.3°0%66%SE 15.1 KM/H
20:00Senin17.5°17.5°0%73%SE 18 KM/H
21:00Senin15.3°15.3°0%74%SE 18.7 KM/H
22:00Senin14.1°12.8°0%73%SE 17.6 KM/H
23:00Senin13.3°11.9°0%74%SE 15.8 KM/H




tutorials